sensor_id;sensor_type;location;lat;lon;timestamp;pressure;altitude;pressure_sealevel;temperature;humidity
5126;BME280;63008;53.112;8.896;2023-04-21T00:00:19;101906.81;;;8.99;85.79
5126;BME280;63008;53.112;8.896;2023-04-21T00:02:21;101908.72;;;8.98;85.79
5126;BME280;63008;53.112;8.896;2023-04-21T00:04:22;101908.72;;;8.98;85.65
5126;BME280;63008;53.112;8.896;2023-04-21T00:06:23;101904.13;;;8.94;85.72
5126;BME280;63008;53.112;8.896;2023-04-21T00:08:24;101904.34;;;8.97;85.89
5126;BME280;63008;53.112;8.896;2023-04-21T00:10:28;101902.72;;;8.96;85.60
5126;BME280;63008;53.112;8.896;2023-04-21T00:12:29;101907.09;;;8.97;85.83
5126;BME280;63008;53.112;8.896;2023-04-21T00:14:30;101905.22;;;8.93;85.66
5126;BME280;63008;53.112;8.896;2023-04-21T00:16:30;101898.19;;;8.87;86.21
5126;BME280;63008;53.112;8.896;2023-04-21T00:18:32;101902.56;;;8.88;85.61
5126;BME280;63008;53.112;8.896;2023-04-21T00:20:33;101899.50;;;8.89;86.08
5126;BME280;63008;53.112;8.896;2023-04-21T00:22:34;101897.69;;;8.85;85.79
5126;BME280;63008;53.112;8.896;2023-04-21T00:24:35;101893.59;;;8.82;85.95
5126;BME280;63008;53.112;8.896;2023-04-21T00:26:36;101891.22;;;8.76;86.22
5126;BME280;63008;53.112;8.896;2023-04-21T00:28:37;101890.94;;;8.77;86.21
5126;BME280;63008;53.112;8.896;2023-04-21T00:30:38;101890.47;;;8.70;86.30
5126;BME280;63008;53.112;8.896;2023-04-21T00:32:39;101891.72;;;8.78;86.57
5126;BME280;63008;53.112;8.896;2023-04-21T00:34:40;101890.06;;;8.82;86.15
5126;BME280;63008;53.112;8.896;2023-04-21T00:36:41;101892.25;;;8.80;85.95
5126;BME280;63008;53.112;8.896;2023-04-21T00:38:42;101884.63;;;8.77;86.04
5126;BME280;63008;53.112;8.896;2023-04-21T00:40:42;101881.63;;;8.78;86.19
5126;BME280;63008;53.112;8.896;2023-04-21T00:42:43;101877.75;;;8.79;85.98
5126;BME280;63008;53.112;8.896;2023-04-21T00:44:44;101880.50;;;8.79;85.96
5126;BME280;63008;53.112;8.896;2023-04-21T00:46:45;101872.56;;;8.78;86.50
5126;BME280;63008;53.112;8.896;2023-04-21T00:48:48;101872.88;;;8.76;86.09
5126;BME280;63008;53.112;8.896;2023-04-21T00:50:49;101877.25;;;8.77;86.23
5126;BME280;63008;53.112;8.896;2023-04-21T00:52:50;101869.69;;;8.69;86.06
5126;BME280;63008;53.112;8.896;2023-04-21T00:54:52;101866.94;;;8.69;86.04
5126;BME280;63008;53.112;8.896;2023-04-21T00:56:54;101867.28;;;8.63;86.17
5126;BME280;63008;53.112;8.896;2023-04-21T00:58:57;101863.25;;;8.60;86.25
5126;BME280;63008;53.112;8.896;2023-04-21T01:00:59;101865.16;;;8.60;86.26
5126;BME280;63008;53.112;8.896;2023-04-21T01:03:00;101868.19;;;8.58;86.49
5126;BME280;63008;53.112;8.896;2023-04-21T01:05:04;101861.69;;;8.54;86.77
5126;BME280;63008;53.112;8.896;2023-04-21T01:07:06;101863.88;;;8.52;86.63
5126;BME280;63008;53.112;8.896;2023-04-21T01:09:09;101857.84;;;8.55;86.29
5126;BME280;63008;53.112;8.896;2023-04-21T01:11:12;101860.00;;;8.58;86.55
5126;BME280;63008;53.112;8.896;2023-04-21T01:13:13;101847.47;;;8.52;86.20
5126;BME280;63008;53.112;8.896;2023-04-21T01:15:16;101853.25;;;8.51;86.39
5126;BME280;63008;53.112;8.896;2023-04-21T01:17:17;101853.25;;;8.51;86.78
5126;BME280;63008;53.112;8.896;2023-04-21T01:19:18;101857.03;;;8.55;86.19
5126;BME280;63008;53.112;8.896;2023-04-21T01:21:20;101847.53;;;8.47;86.57
5126;BME280;63008;53.112;8.896;2023-04-21T01:23:21;101847.78;;;8.51;86.69
5126;BME280;63008;53.112;8.896;2023-04-21T01:25:22;101853.25;;;8.51;86.53
5126;BME280;63008;53.112;8.896;2023-04-21T01:27:27;101848.38;;;8.48;86.35
5126;BME280;63008;53.112;8.896;2023-04-21T01:29:32;101848.19;;;8.39;86.62
5126;BME280;63008;53.112;8.896;2023-04-21T01:31:34;101846.50;;;8.43;86.41
5126;BME280;63008;53.112;8.896;2023-04-21T01:33:35;101843.19;;;8.46;86.32
5126;BME280;63008;53.112;8.896;2023-04-21T01:35:36;101841.31;;;8.42;86.58
5126;BME280;63008;53.112;8.896;2023-04-21T01:37:37;101843.84;;;8.38;86.74
5126;BME280;63008;53.112;8.896;2023-04-21T01:39:39;101846.34;;;8.35;87.04
5126;BME280;63008;53.112;8.896;2023-04-21T01:41:40;101839.69;;;8.41;86.95
5126;BME280;63008;53.112;8.896;2023-04-21T01:43:41;101845.66;;;8.43;86.67
5126;BME280;63008;53.112;8.896;2023-04-21T01:45:42;101832.06;;;8.38;86.66
5126;BME280;63008;53.112;8.896;2023-04-21T01:47:43;101830.16;;;8.38;86.97
5126;BME280;63008;53.112;8.896;2023-04-21T01:49:44;101832.34;;;8.36;86.63
5126;BME280;63008;53.112;8.896;2023-04-21T01:51:45;101832.06;;;8.38;86.58
5126;BME280;63008;53.112;8.896;2023-04-21T01:53:46;101829.09;;;8.34;86.63
5126;BME280;63008;53.112;8.896;2023-04-21T01:55:47;101831.63;;;8.31;86.66
5126;BME280;63008;53.112;8.896;2023-04-21T01:57:47;101826.75;;;8.28;86.77
5126;BME280;63008;53.112;8.896;2023-04-21T01:59:48;101826.19;;;8.26;86.92
5126;BME280;63008;53.112;8.896;2023-04-21T02:01:49;101831.63;;;8.31;86.93
5126;BME280;63008;53.112;8.896;2023-04-21T02:03:50;101832.22;;;8.28;86.89
5126;BME280;63008;53.112;8.896;2023-04-21T02:05:51;101826.50;;;8.24;86.99
5126;BME280;63008;53.112;8.896;2023-04-21T02:07:52;101826.19;;;8.26;86.86
5126;BME280;63008;53.112;8.896;2023-04-21T02:09:53;101825.63;;;8.29;86.94
5126;BME280;63008;53.112;8.896;2023-04-21T02:11:55;101819.63;;;8.27;86.82
5126;BME280;63008;53.112;8.896;2023-04-21T02:13:56;101821.84;;;8.25;86.95
5126;BME280;63008;53.112;8.896;2023-04-21T02:15:57;101819.63;;;8.27;86.96
5126;BME280;63008;53.112;8.896;2023-04-21T02:17:58;101826.16;;;8.31;86.97
5126;BME280;63008;53.112;8.896;2023-04-21T02:19:59;101820.44;;;8.27;86.58
5126;BME280;63008;53.112;8.896;2023-04-21T02:22:00;101824.91;;;8.18;87.11
5126;BME280;63008;53.112;8.896;2023-04-21T02:24:02;101824.94;;;8.13;87.46
5126;BME280;63008;53.112;8.896;2023-04-21T02:26:02;101820.53;;;8.17;87.67
5126;BME280;63008;53.112;8.896;2023-04-21T02:28:04;101819.69;;;8.22;87.01
5126;BME280;63008;53.112;8.896;2023-04-21T02:30:05;101823.84;;;8.19;87.27
5126;BME280;63008;53.112;8.896;2023-04-21T02:32:07;101820.31;;;8.14;87.34
5126;BME280;63008;53.112;8.896;2023-04-21T02:34:08;101830.63;;;8.22;87.16
5126;BME280;63008;53.112;8.896;2023-04-21T02:36:09;101817.53;;;8.19;87.12
5126;BME280;63008;53.112;8.896;2023-04-21T02:38:10;101818.66;;;8.18;87.53
5126;BME280;63008;53.112;8.896;2023-04-21T02:40:11;101819.47;;;8.13;87.16
5126;BME280;63008;53.112;8.896;2023-04-21T02:42:12;101821.63;;;8.16;87.27
5126;BME280;63008;53.112;8.896;2023-04-21T02:44:13;101821.38;;;8.18;87.17
5126;BME280;63008;53.112;8.896;2023-04-21T02:46:14;101815.91;;;8.18;87.09
5126;BME280;63008;53.112;8.896;2023-04-21T02:48:15;101826.88;;;8.13;87.15
5126;BME280;63008;53.112;8.896;2023-04-21T02:50:20;101825.25;;;8.12;87.45
5126;BME280;63008;53.112;8.896;2023-04-21T02:52:21;101826.38;;;8.11;87.38
5126;BME280;63008;53.112;8.896;2023-04-21T02:54:22;101820.28;;;8.19;87.26
5126;BME280;63008;53.112;8.896;2023-04-21T02:56:23;101821.91;;;8.20;86.76
5126;BME280;63008;53.112;8.896;2023-04-21T02:58:24;101815.31;;;8.21;87.00
5126;BME280;63008;53.112;8.896;2023-04-21T03:00:25;101814.81;;;8.19;87.03
5126;BME280;63008;53.112;8.896;2023-04-21T03:02:26;101814.84;;;8.14;86.90
5126;BME280;63008;53.112;8.896;2023-04-21T03:04:29;101809.38;;;8.14;87.00
5126;BME280;63008;53.112;8.896;2023-04-21T03:06:33;101806.13;;;8.12;87.12
5126;BME280;63008;53.112;8.896;2023-04-21T03:08:34;101811.53;;;8.17;87.07
5126;BME280;63008;53.112;8.896;2023-04-21T03:10:36;101809.38;;;8.14;86.93
5126;BME280;63008;53.112;8.896;2023-04-21T03:12:37;101804.13;;;8.17;86.91
5126;BME280;63008;53.112;8.896;2023-04-21T03:14:38;101803.88;;;8.19;87.34
5126;BME280;63008;53.112;8.896;2023-04-21T03:16:39;101800.31;;;8.18;86.68
5126;BME280;63008;53.112;8.896;2023-04-21T03:18:40;101801.69;;;8.16;86.85
5126;BME280;63008;53.112;8.896;2023-04-21T03:20:41;101801.75;;;8.11;86.84
5126;BME280;63008;53.112;8.896;2023-04-21T03:22:42;101798.53;;;8.04;87.35
5126;BME280;63008;53.112;8.896;2023-04-21T03:24:43;101797.16;;;8.06;87.41
5126;BME280;63008;53.112;8.896;2023-04-21T03:26:44;101798.78;;;8.07;87.35
5126;BME280;63008;53.112;8.896;2023-04-21T03:28:45;101797.84;;;8.17;87.20
5126;BME280;63008;53.112;8.896;2023-04-21T03:30:46;101798.47;;;8.09;87.12
5126;BME280;63008;53.112;8.896;2023-04-21T03:32:47;101795.75;;;8.09;86.96
5126;BME280;63008;53.112;8.896;2023-04-21T03:34:48;101795.53;;;8.05;87.14
5126;BME280;63008;53.112;8.896;2023-04-21T03:36:50;101791.22;;;7.99;87.45
5126;BME280;63008;53.112;8.896;2023-04-21T03:38:50;101796.13;;;8.02;87.43
5126;BME280;63008;53.112;8.896;2023-04-21T03:40:51;101803.78;;;8.00;87.63
5126;BME280;63008;53.112;8.896;2023-04-21T03:42:52;101805.63;;;8.05;87.47
5126;BME280;63008;53.112;8.896;2023-04-21T03:44:53;101807.06;;;8.02;87.41
5126;BME280;63008;53.112;8.896;2023-04-21T03:46:55;101811.94;;;8.05;87.40
5126;BME280;63008;53.112;8.896;2023-04-21T03:48:57;101798.19;;;8.10;87.46
5126;BME280;63008;53.112;8.896;2023-04-21T03:50:58;101803.06;;;8.13;86.99
5126;BME280;63008;53.112;8.896;2023-04-21T03:52:59;101806.13;;;8.12;87.06
5126;BME280;63008;53.112;8.896;2023-04-21T03:55:00;101811.78;;;8.15;87.21
5126;BME280;63008;53.112;8.896;2023-04-21T03:57:01;101818.09;;;8.16;87.14
5126;BME280;63008;53.112;8.896;2023-04-21T03:59:02;101800.03;;;8.20;87.00
5126;BME280;63008;53.112;8.896;2023-04-21T04:01:06;101800.88;;;8.15;86.84
5126;BME280;63008;53.112;8.896;2023-04-21T04:03:07;101805.22;;;8.21;86.57
5126;BME280;63008;53.112;8.896;2023-04-21T04:05:08;101799.44;;;8.23;86.51
5126;BME280;63008;53.112;8.896;2023-04-21T04:07:09;101801.13;;;8.19;86.75
5126;BME280;63008;53.112;8.896;2023-04-21T04:09:10;101803.28;;;8.22;86.29
5126;BME280;63008;53.112;8.896;2023-04-21T04:11:11;101804.13;;;8.17;86.52
5126;BME280;63008;53.112;8.896;2023-04-21T04:13:12;101804.69;;;8.19;86.43
5126;BME280;63008;53.112;8.896;2023-04-21T04:15:13;101803.31;;;8.17;86.17
5126;BME280;63008;53.112;8.896;2023-04-21T04:17:14;101798.97;;;8.16;86.42
5126;BME280;63008;53.112;8.896;2023-04-21T04:19:15;101802.50;;;8.16;86.62
5126;BME280;63008;53.112;8.896;2023-04-21T04:21:16;101798.97;;;8.16;86.48
5126;BME280;63008;53.112;8.896;2023-04-21T04:23:17;101804.38;;;8.21;86.17
5126;BME280;63008;53.112;8.896;2023-04-21T04:25:18;101803.06;;;8.13;86.14
5126;BME280;63008;53.112;8.896;2023-04-21T04:27:19;101806.06;;;8.17;86.28
5126;BME280;63008;53.112;8.896;2023-04-21T04:29:21;101801.38;;;8.17;86.33
5126;BME280;63008;53.112;8.896;2023-04-21T04:31:22;101801.66;;;8.21;86.68
5126;BME280;63008;53.112;8.896;2023-04-21T04:33:25;101800.31;;;8.18;86.28
5126;BME280;63008;53.112;8.896;2023-04-21T04:35:26;101805.53;;;8.15;86.39
5126;BME280;63008;53.112;8.896;2023-04-21T04:37:27;101814.53;;;8.20;86.06
5126;BME280;63008;53.112;8.896;2023-04-21T04:39:28;101819.09;;;8.25;85.88
5126;BME280;63008;53.112;8.896;2023-04-21T04:41:29;101812.00;;;8.24;86.16
5126;BME280;63008;53.112;8.896;2023-04-21T04:43:30;101814.81;;;8.19;85.95
5126;BME280;63008;53.112;8.896;2023-04-21T04:45:36;101816.44;;;8.20;86.35
5126;BME280;63008;53.112;8.896;2023-04-21T04:47:38;101822.41;;;8.22;86.06
5126;BME280;63008;53.112;8.896;2023-04-21T04:49:39;101811.22;;;8.23;85.92
5126;BME280;63008;53.112;8.896;2023-04-21T04:51:40;101822.91;;;8.29;86.31
5126;BME280;63008;53.112;8.896;2023-04-21T04:53:41;101819.63;;;8.27;85.95
5126;BME280;63008;53.112;8.896;2023-04-21T04:55:42;101829.16;;;8.29;86.02
5126;BME280;63008;53.112;8.896;2023-04-21T04:57:43;101823.94;;;8.33;85.58
5126;BME280;63008;53.112;8.896;2023-04-21T04:59:44;101820.69;;;8.31;85.50
5126;BME280;63008;53.112;8.896;2023-04-21T05:01:46;101820.91;;;8.34;85.91
5126;BME280;63008;53.112;8.896;2023-04-21T05:03:49;101823.63;;;8.34;85.63
5126;BME280;63008;53.112;8.896;2023-04-21T05:05:50;101821.72;;;8.35;86.19
5126;BME280;63008;53.112;8.896;2023-04-21T05:07:51;101824.91;;;8.42;85.82
5126;BME280;63008;53.112;8.896;2023-04-21T05:09:52;101828.63;;;8.51;84.84
5126;BME280;63008;53.112;8.896;2023-04-21T05:11:54;101830.84;;;8.49;85.06
5126;BME280;63008;53.112;8.896;2023-04-21T05:13:55;101829.75;;;8.50;84.81
5126;BME280;63008;53.112;8.896;2023-04-21T05:15:57;101829.75;;;8.50;85.11
5126;BME280;63008;53.112;8.896;2023-04-21T05:17:58;101827.53;;;8.52;84.88
5126;BME280;63008;53.112;8.896;2023-04-21T05:19:59;101823.09;;;8.56;84.84
5126;BME280;63008;53.112;8.896;2023-04-21T05:22:00;101831.53;;;8.59;84.91
5126;BME280;63008;53.112;8.896;2023-04-21T05:24:03;101827.00;;;8.68;84.81
5126;BME280;63008;53.112;8.896;2023-04-21T05:26:05;101826.72;;;8.70;84.17
5126;BME280;63008;53.112;8.896;2023-04-21T05:28:05;101827.47;;;8.75;84.11
5126;BME280;63008;53.112;8.896;2023-04-21T05:30:07;101824.94;;;8.79;83.82
5126;BME280;63008;53.112;8.896;2023-04-21T05:32:08;101820.81;;;8.81;83.97
5126;BME280;63008;53.112;8.896;2023-04-21T05:34:11;101818.72;;;8.92;83.45
5126;BME280;63008;53.112;8.896;2023-04-21T05:36:12;101822.59;;;8.91;83.55
5126;BME280;63008;53.112;8.896;2023-04-21T05:38:13;101821.19;;;8.93;83.53
5126;BME280;63008;53.112;8.896;2023-04-21T05:40:14;101824.66;;;8.99;83.30
5126;BME280;63008;53.112;8.896;2023-04-21T05:42:15;101827.59;;;9.02;83.53
5126;BME280;63008;53.112;8.896;2023-04-21T05:44:17;101831.09;;;9.07;83.27
5126;BME280;63008;53.112;8.896;2023-04-21T05:46:18;101825.00;;;9.10;82.90
5126;BME280;63008;53.112;8.896;2023-04-21T05:48:19;101834.25;;;9.14;82.66
5126;BME280;63008;53.112;8.896;2023-04-21T05:50:20;101830.84;;;9.22;82.41
5126;BME280;63008;53.112;8.896;2023-04-21T05:52:21;101831.38;;;9.24;81.88
5126;BME280;63008;53.112;8.896;2023-04-21T05:54:22;101826.03;;;9.33;81.56
5126;BME280;63008;53.112;8.896;2023-04-21T05:56:23;101829.00;;;9.36;81.72
5126;BME280;63008;53.112;8.896;2023-04-21T05:58:24;101829.19;;;9.40;81.40
5126;BME280;63008;53.112;8.896;2023-04-21T06:00:25;101833.47;;;9.46;81.15
5126;BME280;63008;53.112;8.896;2023-04-21T06:02:26;101829.53;;;9.52;81.25
5126;BME280;63008;53.112;8.896;2023-04-21T06:04:27;101831.66;;;9.55;81.34
5126;BME280;63008;53.112;8.896;2023-04-21T06:06:28;101818.97;;;9.59;81.02
5126;BME280;63008;53.112;8.896;2023-04-21T06:08:29;101824.31;;;9.69;80.99
5126;BME280;63008;53.112;8.896;2023-04-21T06:10:30;101822.78;;;9.76;80.35
5126;BME280;63008;53.112;8.896;2023-04-21T06:12:31;101821.28;;;9.84;79.47
5126;BME280;63008;53.112;8.896;2023-04-21T06:14:32;101819.78;;;9.91;79.39
5126;BME280;63008;53.112;8.896;2023-04-21T06:16:33;101820.28;;;9.93;79.10
5126;BME280;63008;53.112;8.896;2023-04-21T06:18:34;101819.88;;;10.00;79.13
5126;BME280;63008;53.112;8.896;2023-04-21T06:20:35;101812.41;;;10.05;78.95
5126;BME280;63008;53.112;8.896;2023-04-21T06:22:36;101817.47;;;10.12;78.67
5126;BME280;63008;53.112;8.896;2023-04-21T06:24:37;101813.31;;;10.14;78.68
5126;BME280;63008;53.112;8.896;2023-04-21T06:26:38;101813.41;;;10.23;78.46
5126;BME280;63008;53.112;8.896;2023-04-21T06:28:39;101805.06;;;10.28;78.17
5126;BME280;63008;53.112;8.896;2023-04-21T06:30:45;101814.34;;;10.32;77.66
5126;BME280;63008;53.112;8.896;2023-04-21T06:32:46;101807.41;;;10.34;77.67
5126;BME280;63008;53.112;8.896;2023-04-21T06:34:48;101808.41;;;10.38;77.36
5126;BME280;63008;53.112;8.896;2023-04-21T06:36:49;101804.47;;;10.44;77.74
5126;BME280;63008;53.112;8.896;2023-04-21T06:38:50;101805.84;;;10.55;76.96
5126;BME280;63008;53.112;8.896;2023-04-21T06:40:51;101807.47;;;10.56;76.61
5126;BME280;63008;53.112;8.896;2023-04-21T06:42:52;101800.78;;;10.62;77.02
5126;BME280;63008;53.112;8.896;2023-04-21T06:44:53;101805.53;;;10.70;76.74
5126;BME280;63008;53.112;8.896;2023-04-21T06:46:53;101807.16;;;10.71;76.16
5126;BME280;63008;53.112;8.896;2023-04-21T06:48:56;101808.34;;;10.79;75.77
5126;BME280;63008;53.112;8.896;2023-04-21T06:50:57;101803.25;;;10.86;75.80
5126;BME280;63008;53.112;8.896;2023-04-21T06:52:58;101805.25;;;10.93;75.52
5126;BME280;63008;53.112;8.896;2023-04-21T06:54:59;101812.94;;;11.05;75.00
5126;BME280;63008;53.112;8.896;2023-04-21T06:57:00;101807.34;;;11.10;75.36
5126;BME280;63008;53.112;8.896;2023-04-21T06:59:01;101809.16;;;11.14;74.39
5126;BME280;63008;53.112;8.896;2023-04-21T07:01:02;101800.28;;;11.17;74.59
5126;BME280;63008;53.112;8.896;2023-04-21T07:03:03;101802.59;;;11.24;74.36
5126;BME280;63008;53.112;8.896;2023-04-21T07:05:04;101804.91;;;11.30;74.42
5126;BME280;63008;53.112;8.896;2023-04-21T07:07:05;101796.22;;;11.37;74.16
5126;BME280;63008;53.112;8.896;2023-04-21T07:09:06;101798.22;;;11.45;74.06
5126;BME280;63008;53.112;8.896;2023-04-21T07:11:07;101790.97;;;11.49;73.53
5126;BME280;63008;53.112;8.896;2023-04-21T07:13:08;101793.88;;;11.52;74.36
5126;BME280;63008;53.112;8.896;2023-04-21T07:15:09;101793.03;;;11.65;73.79
5126;BME280;63008;53.112;8.896;2023-04-21T07:17:11;101794.69;;;11.75;72.83
5126;BME280;63008;53.112;8.896;2023-04-21T07:19:12;101795.38;;;11.80;73.05
5126;BME280;63008;53.112;8.896;2023-04-21T07:21:13;101789.72;;;11.85;73.07
5126;BME280;63008;53.112;8.896;2023-04-21T07:23:14;101780.44;;;12.03;72.35
5126;BME280;63008;53.112;8.896;2023-04-21T07:25:15;101787.28;;;12.14;72.13
5126;BME280;63008;53.112;8.896;2023-04-21T07:27:16;101787.00;;;12.24;72.20
5126;BME280;63008;53.112;8.896;2023-04-21T07:29:18;101786.38;;;12.36;72.28
5126;BME280;63008;53.112;8.896;2023-04-21T07:31:20;101786.06;;;12.46;71.53
5126;BME280;63008;53.112;8.896;2023-04-21T07:33:21;101783.31;;;12.54;70.47
5126;BME280;63008;53.112;8.896;2023-04-21T07:35:22;101782.06;;;12.69;70.04
5126;BME280;63008;53.112;8.896;2023-04-21T07:37:23;101782.69;;;12.82;69.83
5126;BME280;63008;53.112;8.896;2023-04-21T07:39:27;101788.06;;;12.87;68.92
5126;BME280;63008;53.112;8.896;2023-04-21T07:41:28;101785.47;;;12.91;68.60
5126;BME280;63008;53.112;8.896;2023-04-21T07:43:29;101786.94;;;12.88;68.93
5126;BME280;63008;53.112;8.896;2023-04-21T07:45:31;101782.72;;;12.91;68.57
5126;BME280;63008;53.112;8.896;2023-04-21T07:47:32;101770.91;;;12.99;69.03
5126;BME280;63008;53.112;8.896;2023-04-21T07:49:33;101780.31;;;13.06;67.68
5126;BME280;63008;53.112;8.896;2023-04-21T07:51:34;101775.13;;;13.13;67.83
5126;BME280;63008;53.112;8.896;2023-04-21T07:53:35;101775.09;;;13.30;66.96
5126;BME280;63008;53.112;8.896;2023-04-21T07:55:36;101765.50;;;13.36;65.94
5126;BME280;63008;53.112;8.896;2023-04-21T07:57:37;101769.25;;;13.40;66.02
5126;BME280;63008;53.112;8.896;2023-04-21T07:59:39;101769.84;;;13.54;66.54
5126;BME280;63008;53.112;8.896;2023-04-21T08:01:40;101766.59;;;13.61;65.83
5126;BME280;63008;53.112;8.896;2023-04-21T08:03:41;101767.56;;;13.65;65.88
5126;BME280;63008;53.112;8.896;2023-04-21T08:05:43;101761.06;;;13.69;65.57
5126;BME280;63008;53.112;8.896;2023-04-21T08:07:44;101762.28;;;13.89;66.52
5126;BME280;63008;53.112;8.896;2023-04-21T08:09:45;101760.72;;;14.08;66.10
5126;BME280;63008;53.112;8.896;2023-04-21T08:11:46;101766.25;;;14.08;64.69
5126;BME280;63008;53.112;8.896;2023-04-21T08:13:48;101765.44;;;14.08;64.73
5126;BME280;63008;53.112;8.896;2023-04-21T08:15:51;101761.53;;;14.09;64.08
5126;BME280;63008;53.112;8.896;2023-04-21T08:17:51;101755.19;;;14.17;63.95
5126;BME280;63008;53.112;8.896;2023-04-21T08:19:52;101756.22;;;14.33;63.65
5126;BME280;63008;53.112;8.896;2023-04-21T08:21:54;101756.59;;;14.52;64.69
5126;BME280;63008;53.112;8.896;2023-04-21T08:23:55;101755.34;;;14.69;64.50
5126;BME280;63008;53.112;8.896;2023-04-21T08:25:55;101758.31;;;14.85;64.28
5126;BME280;63008;53.112;8.896;2023-04-21T08:27:56;101755.72;;;15.00;63.13
5126;BME280;63008;53.112;8.896;2023-04-21T08:29:57;101761.78;;;15.14;62.16
5126;BME280;63008;53.112;8.896;2023-04-21T08:31:59;101759.28;;;15.21;61.32
5126;BME280;63008;53.112;8.896;2023-04-21T08:34:00;101755.31;;;15.31;61.69
5126;BME280;63008;53.112;8.896;2023-04-21T08:36:01;101759.97;;;15.39;61.17
5126;BME280;63008;53.112;8.896;2023-04-21T08:38:04;101761.47;;;15.48;60.89
5126;BME280;63008;53.112;8.896;2023-04-21T08:40:05;101751.97;;;15.70;60.99
5126;BME280;63008;53.112;8.896;2023-04-21T08:42:07;101749.31;;;15.85;59.77
5126;BME280;63008;53.112;8.896;2023-04-21T08:44:08;101753.72;;;15.98;58.18
5126;BME280;63008;53.112;8.896;2023-04-21T08:46:11;101748.53;;;16.09;59.61
5126;BME280;63008;53.112;8.896;2023-04-21T08:48:13;101747.59;;;16.17;58.95
5126;BME280;63008;53.112;8.896;2023-04-21T08:50:18;101746.56;;;16.33;58.09
5126;BME280;63008;53.112;8.896;2023-04-21T08:52:19;101745.53;;;16.50;57.44
5126;BME280;63008;53.112;8.896;2023-04-21T08:54:20;101736.16;;;16.66;57.75
5126;BME280;63008;53.112;8.896;2023-04-21T08:56:23;101745.50;;;16.73;56.88
5126;BME280;63008;53.112;8.896;2023-04-21T08:58:25;101741.88;;;16.85;56.27
5126;BME280;63008;53.112;8.896;2023-04-21T09:00:26;101733.34;;;17.05;58.81
5126;BME280;63008;53.112;8.896;2023-04-21T09:02:27;101735.44;;;17.08;55.79
5126;BME280;63008;53.112;8.896;2023-04-21T09:04:28;101739.16;;;17.28;56.08
5126;BME280;63008;53.112;8.896;2023-04-21T09:06:39;101738.25;;;17.51;55.93
5126;BME280;63008;53.112;8.896;2023-04-21T09:08:51;101739.63;;;17.88;52.75
5126;BME280;63008;53.112;8.896;2023-04-21T09:10:53;101738.00;;;18.18;51.60
5126;BME280;63008;53.112;8.896;2023-04-21T09:12:54;101735.09;;;18.46;51.79
5126;BME280;63008;53.112;8.896;2023-04-21T09:14:55;101730.75;;;18.82;51.40
5126;BME280;63008;53.112;8.896;2023-04-21T09:17:04;101719.66;;;19.20;50.62
5126;BME280;63008;53.112;8.896;2023-04-21T09:19:13;101731.88;;;19.57;48.77
5126;BME280;63008;53.112;8.896;2023-04-21T09:21:17;101732.78;;;20.06;48.36
5126;BME280;63008;53.112;8.896;2023-04-21T09:23:19;101733.44;;;20.22;46.94
5126;BME280;63008;53.112;8.896;2023-04-21T09:25:21;101725.84;;;20.19;46.73
5126;BME280;63008;53.112;8.896;2023-04-21T09:27:22;101731.34;;;20.41;46.71
5126;BME280;63008;53.112;8.896;2023-04-21T09:29:24;101717.38;;;20.67;44.78
5126;BME280;63008;53.112;8.896;2023-04-21T09:31:25;101722.78;;;20.28;46.27
5126;BME280;63008;53.112;8.896;2023-04-21T09:33:32;101717.56;;;20.81;44.29
5126;BME280;63008;53.112;8.896;2023-04-21T09:35:34;101720.56;;;20.95;43.39
5126;BME280;63008;53.112;8.896;2023-04-21T09:37:37;101708.72;;;20.76;43.75
5126;BME280;63008;53.112;8.896;2023-04-21T09:39:38;101717.84;;;21.35;44.16
5126;BME280;63008;53.112;8.896;2023-04-21T09:41:44;101705.38;;;21.29;45.80
5126;BME280;63008;53.112;8.896;2023-04-21T09:43:45;101709.19;;;21.87;41.13
5126;BME280;63008;53.112;8.896;2023-04-21T09:45:47;101713.22;;;21.17;43.45
5126;BME280;63008;53.112;8.896;2023-04-21T09:47:49;101707.03;;;21.34;44.63
5126;BME280;63008;53.112;8.896;2023-04-21T09:49:51;101699.66;;;21.52;41.60
5126;BME280;63008;53.112;8.896;2023-04-21T09:51:52;101703.06;;;21.35;41.19
5126;BME280;63008;53.112;8.896;2023-04-21T09:53:59;101700.41;;;21.49;42.42
5126;BME280;63008;53.112;8.896;2023-04-21T09:56:03;101699.81;;;21.29;41.14
5126;BME280;63008;53.112;8.896;2023-04-21T09:58:05;101694.91;;;21.96;41.59
5126;BME280;63008;53.112;8.896;2023-04-21T10:00:08;101688.25;;;22.18;39.71
5126;BME280;63008;53.112;8.896;2023-04-21T10:02:10;101686.00;;;22.37;42.50
5126;BME280;63008;53.112;8.896;2023-04-21T10:04:12;101688.28;;;22.89;40.88
5126;BME280;63008;53.112;8.896;2023-04-21T10:06:14;101686.97;;;22.69;37.92
5126;BME280;63008;53.112;8.896;2023-04-21T10:08:15;101690.44;;;23.16;36.81
5126;BME280;63008;53.112;8.896;2023-04-21T10:10:27;101685.53;;;23.06;37.08
5126;BME280;63008;53.112;8.896;2023-04-21T10:12:29;101676.84;;;22.40;37.80
5126;BME280;63008;53.112;8.896;2023-04-21T10:14:32;101676.13;;;22.53;40.36
5126;BME280;63008;53.112;8.896;2023-04-21T10:16:36;101673.13;;;22.26;40.37
5126;BME280;63008;53.112;8.896;2023-04-21T10:18:42;101673.72;;;22.55;38.88
5126;BME280;63008;53.112;8.896;2023-04-21T10:20:57;101673.00;;;22.72;37.37
5126;BME280;63008;53.112;8.896;2023-04-21T10:23:01;101669.63;;;23.17;37.28
5126;BME280;63008;53.112;8.896;2023-04-21T10:25:03;101664.06;;;22.39;37.69
5126;BME280;63008;53.112;8.896;2023-04-21T10:27:04;101659.59;;;22.34;38.66
5126;BME280;63008;53.112;8.896;2023-04-21T10:29:06;101657.38;;;22.61;37.09
5126;BME280;63008;53.112;8.896;2023-04-21T10:31:17;101658.72;;;23.02;37.50
5126;BME280;63008;53.112;8.896;2023-04-21T10:33:22;101657.59;;;23.24;37.17
5126;BME280;63008;53.112;8.896;2023-04-21T10:35:57;101655.94;;;22.98;38.83
5126;BME280;63008;53.112;8.896;2023-04-21T10:37:59;101660.84;;;23.36;37.37
5126;BME280;63008;53.112;8.896;2023-04-21T10:40:00;101649.63;;;23.54;37.27
5126;BME280;63008;53.112;8.896;2023-04-21T10:44:20;101647.69;;;23.89;37.54
5126;BME280;63008;53.112;8.896;2023-04-21T10:46:37;101633.22;;;23.38;36.73
5126;BME280;63008;53.112;8.896;2023-04-21T10:48:38;101636.31;;;22.95;40.78
5126;BME280;63008;53.112;8.896;2023-04-21T10:50:42;101636.06;;;23.84;34.85
5126;BME280;63008;53.112;8.896;2023-04-21T10:52:50;101627.22;;;23.54;36.37